Time;durP1;ratioP1;P1;durP2;ratioP2;P2;SDS_P1;SDS_P2;PMS_P1;PMS_P2;Temp;Humidity;BMP_temperature;BMP_pressure;BME280_temperature;BME280_humidity;BME280_pressure;Samples;Min_cycle;Max_cycle;Signal;HPM_P1;HPM_P2
2022/12/10 00:03:30;;;;;;;54.88;42.50;;;;;;;;;;10109437;28;20049;-69
2022/12/10 00:08:26;;;;;;;57.60;42.05;;;;;;;;;;10116434;28;20071;-69
2022/12/10 00:13:23;;;;;;;44.90;39.97;;;;;;;;;;10105166;28;20155;-69
2022/12/10 00:18:19;;;;;;;53.03;39.50;;;;;;;;;;10119442;28;20426;-69
2022/12/10 00:23:15;;;;;;;48.63;38.33;;;;;;;;;;10104706;28;20482;-69
2022/12/10 00:28:18;;;;;;;49.72;38.75;;;;;;;;;;10109184;28;20426;-69
2022/12/10 00:33:14;;;;;;;44.90;36.65;;;;;;;;;;10104935;28;20065;-69
2022/12/10 00:38:11;;;;;;;45.33;36.65;;;;;;;;;;10111949;28;20140;-69
2022/12/10 00:43:07;;;;;;;49.85;38.25;;;;;;;;;;10115384;28;20093;-69
2022/12/10 00:48:03;;;;;;;45.25;38.45;;;;;;;;;;10118337;28;20038;-69
2022/12/10 00:52:59;;;;;;;46.85;38.00;;;;;;;;;;10119554;28;20050;-70
2022/12/10 00:57:56;;;;;;;48.90;40.63;;;;;;;;;;10118366;28;20049;-69
2022/12/10 01:02:52;;;;;;;45.08;39.15;;;;;;;;;;10121500;28;20042;-69
2022/12/10 01:07:50;;;;;;;45.70;37.50;;;;;;;;;;10113369;28;20046;-68
2022/12/10 01:12:46;;;;;;;43.65;36.28;;;;;;;;;;10116318;28;20050;-69
2022/12/10 01:17:42;;;;;;;41.15;35.78;;;;;;;;;;10124195;28;20158;-69
2022/12/10 01:22:38;;;;;;;42.65;36.42;;;;;;;;;;10116080;28;20046;-69
2022/12/10 01:27:35;;;;;;;43.55;37.83;;;;;;;;;;10120760;28;20063;-69
2022/12/10 01:32:31;;;;;;;41.90;36.85;;;;;;;;;;10117637;28;20046;-69
2022/12/10 01:37:27;;;;;;;43.72;36.10;;;;;;;;;;10118957;28;20507;-69
2022/12/10 01:42:23;;;;;;;44.50;35.30;;;;;;;;;;10113982;28;20058;-69
2022/12/10 01:47:20;;;;;;;39.25;33.95;;;;;;;;;;10115605;28;20051;-69
2022/12/10 01:52:16;;;;;;;40.03;35.45;;;;;;;;;;10116030;28;20480;-69
2022/12/10 01:57:21;;;;;;;39.92;33.75;;;;;;;;;;10113722;28;20141;-69
2022/12/10 02:02:23;;;;;;;36.20;32.50;;;;;;;;;;10116318;28;20046;-70
2022/12/10 02:07:19;;;;;;;;;;;;;;;;;;10117609;28;20047;-69
2022/12/10 02:12:28;;;;;;;33.60;29.48;;;;;;;;;;10114609;28;19928;-69
2022/12/10 02:17:34;;;;;;;36.63;31.00;;;;;;;;;;10106879;28;20046;-69
2022/12/10 02:22:33;;;;;;;33.47;30.10;;;;;;;;;;10111392;28;20053;-69
2022/12/10 02:27:33;;;;;;;35.65;31.80;;;;;;;;;;10114696;28;20129;-69
2022/12/10 02:32:31;;;;;;;34.88;30.05;;;;;;;;;;10116258;28;20069;-69
2022/12/10 02:37:30;;;;;;;34.70;30.02;;;;;;;;;;10115392;28;20145;-69
2022/12/10 02:42:28;;;;;;;34.28;30.60;;;;;;;;;;10114157;28;20510;-69
2022/12/10 02:47:25;;;;;;;31.60;28.23;;;;;;;;;;10112104;28;20066;-69
2022/12/10 02:52:22;;;;;;;32.83;29.40;;;;;;;;;;10109176;28;20417;-69
2022/12/10 02:57:37;;;;;;;30.58;27.33;;;;;;;;;;10109681;28;20533;-69
2022/12/10 03:02:43;;;;;;;30.13;27.00;;;;;;;;;;10110455;28;20487;-69
2022/12/10 03:08:00;;;;;;;30.70;27.45;;;;;;;;;;10106226;28;20531;-69
2022/12/10 03:13:00;;;;;;;29.63;26.55;;;;;;;;;;10096127;28;20541;-69
2022/12/10 03:17:57;;;;;;;29.15;26.08;;;;;;;;;;10113909;28;20042;-69
2022/12/10 03:22:53;;;;;;;28.38;25.50;;;;;;;;;;10112761;28;20050;-69
2022/12/10 03:27:51;;;;;;;30.92;27.13;;;;;;;;;;10111926;28;20146;-69
2022/12/10 03:32:47;;;;;;;30.83;26.10;;;;;;;;;;10108828;28;20047;-69
2022/12/10 03:37:43;;;;;;;26.50;23.52;;;;;;;;;;10112487;28;20387;-69
2022/12/10 03:42:40;;;;;;;26.35;21.63;;;;;;;;;;10116899;28;20080;-69
2022/12/10 03:47:36;;;;;;;26.08;22.52;;;;;;;;;;10117256;28;20061;-68
2022/12/10 03:52:32;;;;;;;28.55;23.17;;;;;;;;;;10116895;28;20047;-69
2022/12/10 03:57:28;;;;;;;29.33;24.50;;;;;;;;;;10106698;28;20035;-69
2022/12/10 04:02:24;;;;;;;29.27;23.67;;;;;;;;;;10113512;28;20053;-69
2022/12/10 04:07:21;;;;;;;22.98;20.67;;;;;;;;;;10105119;28;20086;-69
2022/12/10 04:12:17;;;;;;;23.05;20.85;;;;;;;;;;10113727;28;20125;-69
2022/12/10 04:17:13;;;;;;;22.30;19.90;;;;;;;;;;10103137;28;20518;-69
2022/12/10 04:27:38;;;;;;;22.48;19.70;;;;;;;;;;10108578;28;20049;-69
2022/12/10 04:32:34;;;;;;;24.15;20.35;;;;;;;;;;10103162;28;20047;-69
2022/12/10 04:37:30;;;;;;;24.63;22.00;;;;;;;;;;10111335;28;20126;-69
2022/12/10 04:42:27;;;;;;;23.63;21.15;;;;;;;;;;10101430;28;20051;-69
2022/12/10 04:47:23;;;;;;;22.02;19.88;;;;;;;;;;10106529;28;20041;-69
2022/12/10 04:52:19;;;;;;;23.50;21.13;;;;;;;;;;10105100;28;20610;-69
2022/12/10 04:57:15;;;;;;;22.33;20.13;;;;;;;;;;10101134;28;20154;-69
2022/12/10 05:02:12;;;;;;;22.30;19.98;;;;;;;;;;10109375;28;20142;-69
2022/12/10 05:07:08;;;;;;;23.65;21.25;;;;;;;;;;10105111;28;20054;-69
2022/12/10 05:12:04;;;;;;;22.00;19.98;;;;;;;;;;10107445;28;20074;-69
2022/12/10 05:17:01;;;;;;;23.63;21.33;;;;;;;;;;10110271;28;20055;-69
2022/12/10 05:27:12;;;;;;;23.75;21.52;;;;;;;;;;10106338;28;20102;-69
2022/12/10 05:32:08;;;;;;;23.52;21.27;;;;;;;;;;10115443;28;20158;-69
2022/12/10 05:37:04;;;;;;;21.92;19.77;;;;;;;;;;10110627;28;20043;-69
2022/12/10 05:42:00;;;;;;;22.38;20.08;;;;;;;;;;10128507;28;20065;-69
2022/12/10 05:46:57;;;;;;;23.23;20.90;;;;;;;;;;10107979;28;20054;-69
2022/12/10 05:51:55;;;;;;;21.48;19.38;;;;;;;;;;10118914;28;20453;-69
2022/12/10 05:56:51;;;;;;;23.80;21.60;;;;;;;;;;10103607;28;20444;-69
2022/12/10 06:01:47;;;;;;;23.73;21.42;;;;;;;;;;10113642;28;20577;-69
2022/12/10 06:06:44;;;;;;;23.73;21.42;;;;;;;;;;10124907;28;20503;-70
2022/12/10 06:11:41;;;;;;;23.75;21.45;;;;;;;;;;10115152;28;20058;-69
2022/12/10 06:16:38;;;;;;;23.85;21.85;;;;;;;;;;10113933;28;20049;-69
2022/12/10 06:21:34;;;;;;;23.88;21.65;;;;;;;;;;10108980;28;20061;-69
2022/12/10 06:26:31;;;;;;;23.27;20.88;;;;;;;;;;10106575;28;20126;-69
2022/12/10 06:31:27;;;;;;;25.02;22.63;;;;;;;;;;10118279;28;20047;-69
2022/12/10 06:36:23;;;;;;;25.40;22.60;;;;;;;;;;10113086;28;20047;-69
2022/12/10 06:41:23;;;;;;;22.70;20.60;;;;;;;;;;10109334;28;20126;-69
2022/12/10 06:46:20;;;;;;;23.52;21.23;;;;;;;;;;10111213;28;20046;-69
2022/12/10 06:51:17;;;;;;;24.05;21.75;;;;;;;;;;10104591;28;20130;-68
2022/12/10 06:56:15;;;;;;;23.63;21.20;;;;;;;;;;10108604;28;20054;-68
2022/12/10 07:01:21;;;;;;;23.83;21.42;;;;;;;;;;10115118;28;20058;-68
2022/12/10 07:06:18;;;;;;;25.23;22.83;;;;;;;;;;10120791;28;20521;-68
2022/12/10 07:11:18;;;;;;;26.00;23.52;;;;;;;;;;10105799;28;20057;-68
2022/12/10 07:16:15;;;;;;;25.33;22.92;;;;;;;;;;10126259;28;20051;-69
2022/12/10 07:21:13;;;;;;;25.83;23.42;;;;;;;;;;10118946;28;20586;-68
2022/12/10 07:26:10;;;;;;;25.83;23.33;;;;;;;;;;10118061;28;20057;-68
2022/12/10 07:31:07;;;;;;;23.95;21.77;;;;;;;;;;10115040;28;20054;-68
2022/12/10 07:36:08;;;;;;;25.08;22.63;;;;;;;;;;10111691;28;20038;-68
2022/12/10 07:41:05;;;;;;;26.42;23.88;;;;;;;;;;10108053;28;20039;-68
2022/12/10 07:46:09;;;;;;;24.75;22.33;;;;;;;;;;10105868;28;20058;-68
2022/12/10 07:51:05;;;;;;;24.50;22.30;;;;;;;;;;10102503;28;20434;-68
2022/12/10 07:56:02;;;;;;;25.35;23.02;;;;;;;;;;10105197;28;20057;-69
2022/12/10 08:00:59;;;;;;;24.55;22.25;;;;;;;;;;10108354;28;20130;-68
2022/12/10 08:06:06;;;;;;;27.15;24.60;;;;;;;;;;10109683;28;20414;-69
2022/12/10 08:11:03;;;;;;;25.20;22.98;;;;;;;;;;10103813;28;20130;-69
2022/12/10 08:16:00;;;;;;;26.35;24.13;;;;;;;;;;10110549;28;20414;-69
2022/12/10 08:20:57;;;;;;;26.52;24.23;;;;;;;;;;10119418;28;20112;-68
2022/12/10 08:25:53;;;;;;;24.20;22.27;;;;;;;;;;10119372;28;20046;-69
2022/12/10 08:30:49;;;;;;;25.95;23.58;;;;;;;;;;10106760;28;20058;-70
2022/12/10 08:35:46;;;;;;;26.75;24.27;;;;;;;;;;10117923;28;20097;-69
2022/12/10 08:40:42;;;;;;;26.42;24.08;;;;;;;;;;10107568;28;20055;-69
2022/12/10 08:45:38;;;;;;;25.05;22.75;;;;;;;;;;10112891;28;20125;-70
2022/12/10 08:50:36;;;;;;;26.35;23.85;;;;;;;;;;10109939;28;20078;-69
2022/12/10 08:55:32;;;;;;;26.38;23.65;;;;;;;;;;10098444;28;20055;-69
2022/12/10 09:00:28;;;;;;;25.60;23.10;;;;;;;;;;10106649;28;20161;-69
2022/12/10 09:05:24;;;;;;;24.00;21.63;;;;;;;;;;10119130;28;20047;-69
2022/12/10 09:10:21;;;;;;;25.13;22.77;;;;;;;;;;10114851;28;20506;-69
2022/12/10 09:15:18;;;;;;;26.08;23.42;;;;;;;;;;10111577;28;20062;-69
2022/12/10 09:20:15;;;;;;;24.08;21.70;;;;;;;;;;10115966;28;20461;-69
2022/12/10 09:25:15;;;;;;;24.05;22.00;;;;;;;;;;10114705;28;20077;-69
2022/12/10 09:30:11;;;;;;;23.88;21.67;;;;;;;;;;10124747;28;20137;-69
2022/12/10 09:35:07;;;;;;;22.45;20.45;;;;;;;;;;10111304;28;20509;-69
2022/12/10 09:40:04;;;;;;;20.35;18.50;;;;;;;;;;10116017;28;20495;-69
2022/12/10 09:45:00;;;;;;;22.50;20.40;;;;;;;;;;10115426;28;20046;-69
2022/12/10 09:50:01;;;;;;;20.85;18.83;;;;;;;;;;10109557;28;20058;-69
2022/12/10 09:55:00;;;;;;;21.40;19.38;;;;;;;;;;10107304;28;20130;-69
2022/12/10 09:59:56;;;;;;;20.38;18.58;;;;;;;;;;10121453;28;20065;-69
2022/12/10 10:05:09;;;;;;;20.88;18.90;;;;;;;;;;10109749;28;20532;-69
2022/12/10 10:10:05;;;;;;;;;;;;;;;;;;10111847;28;20050;-68
2022/12/10 10:15:11;;;;;;;19.00;17.25;;;;;;;;;;10110466;28;19930;-68
2022/12/10 10:20:08;;;;;;;18.85;17.23;;;;;;;;;;10119001;28;20043;-68
2022/12/10 10:25:05;;;;;;;17.48;15.88;;;;;;;;;;10114554;28;20598;-68
2022/12/10 10:30:04;;;;;;;19.17;17.40;;;;;;;;;;10119218;28;20049;-68
2022/12/10 10:35:00;;;;;;;17.63;16.02;;;;;;;;;;10116282;28;20114;-69
2022/12/10 10:39:57;;;;;;;18.23;16.42;;;;;;;;;;10112614;28;20053;-69
2022/12/10 10:44:54;;;;;;;18.67;16.92;;;;;;;;;;10110312;28;20052;-69
2022/12/10 10:49:50;;;;;;;18.25;16.50;;;;;;;;;;10108348;28;20042;-69
2022/12/10 10:54:47;;;;;;;17.77;16.17;;;;;;;;;;10108584;28;20073;-69
2022/12/10 10:59:43;;;;;;;17.67;16.10;;;;;;;;;;10110705;28;20422;-69
2022/12/10 11:04:50;;;;;;;18.75;17.05;;;;;;;;;;10109459;28;20429;-69
2022/12/10 11:09:47;;;;;;;18.52;16.77;;;;;;;;;;10108751;28;20051;-69
2022/12/10 11:14:45;;;;;;;17.63;15.93;;;;;;;;;;10109639;28;20050;-69
2022/12/10 11:19:42;;;;;;;16.17;14.68;;;;;;;;;;10113996;28;20565;-68
2022/12/10 11:24:39;;;;;;;17.27;15.68;;;;;;;;;;10113133;28;20396;-69
2022/12/10 11:29:35;;;;;;;18.85;16.95;;;;;;;;;;10096274;28;20495;-69
2022/12/10 11:35:04;;;;;;;18.35;16.58;;;;;;;;;;10117487;28;20074;-68
2022/12/10 11:40:00;;;;;;;18.92;17.23;;;;;;;;;;10064500;28;20137;-69
2022/12/10 11:45:01;;;;;;;18.77;17.08;;;;;;;;;;10106491;28;20568;-69
2022/12/10 11:50:02;;;;;;;17.83;15.93;;;;;;;;;;10105870;28;20057;-69
2022/12/10 11:54:59;;;;;;;20.08;18.08;;;;;;;;;;10102261;28;20434;-69
2022/12/10 12:00:01;;;;;;;;;;;;;;;;;;10106509;28;20515;-69
2022/12/10 12:05:37;;;;;;;20.00;18.20;;;;;;;;;;10106445;28;22953;-68
2022/12/10 12:10:48;;;;;;;20.77;18.60;;;;;;;;;;10101814;28;20046;-68
2022/12/10 12:15:57;;;;;;;18.88;17.10;;;;;;;;;;10113165;28;20610;-69
2022/12/10 12:20:53;;;;;;;;;;;;;;;;;;10107699;28;20188;-70
2022/12/10 12:25:52;;;;;;;19.70;17.88;;;;;;;;;;10111663;28;19934;-69
2022/12/10 12:30:52;;;;;;;18.17;16.45;;;;;;;;;;10113323;28;20050;-69
2022/12/10 12:35:58;;;;;;;19.40;17.50;;;;;;;;;;10108229;28;20506;-69
2022/12/10 12:41:04;;;;;;;19.08;17.15;;;;;;;;;;10118287;28;20047;-69
2022/12/10 12:46:08;;;;;;;18.08;16.38;;;;;;;;;;10106293;28;20038;-69
2022/12/10 12:51:07;;;;;;;18.80;16.95;;;;;;;;;;10109185;28;20038;-69
2022/12/10 12:56:12;;;;;;;18.17;16.42;;;;;;;;;;10116052;28;20047;-68
2022/12/10 13:01:30;;;;;;;17.08;15.48;;;;;;;;;;10115737;28;20524;-69
2022/12/10 13:06:31;;;;;;;17.52;15.70;;;;;;;;;;10120458;28;20503;-68
2022/12/10 13:11:29;;;;;;;19.15;17.20;;;;;;;;;;10101658;28;20062;-68
2022/12/10 13:16:35;;;;;;;18.77;16.92;;;;;;;;;;10097621;28;20043;-68
2022/12/10 13:21:31;;;;;;;18.08;16.38;;;;;;;;;;10101489;28;20039;-68
2022/12/10 13:26:28;;;;;;;18.88;16.88;;;;;;;;;;10114236;28;20054;-68
2022/12/10 13:31:31;;;;;;;18.58;16.88;;;;;;;;;;10104629;28;20502;-68
2022/12/10 13:36:27;;;;;;;;;;;;;;;;;;10108084;28;20125;-68
2022/12/10 13:46:52;;;;;;;19.55;17.58;;;;;;;;;;10111707;28;20083;-68
2022/12/10 13:51:49;;;;;;;18.08;16.27;;;;;;;;;;10107591;28;20077;-68
2022/12/10 13:56:51;;;;;;;19.02;17.23;;;;;;;;;;10114105;28;20078;-68
2022/12/10 14:01:55;;;;;;;19.17;17.25;;;;;;;;;;10112825;28;20050;-68
2022/12/10 14:06:51;;;;;;;20.92;17.95;;;;;;;;;;10105225;28;20594;-68
2022/12/10 14:11:50;;;;;;;19.15;17.25;;;;;;;;;;10114558;28;20043;-68
2022/12/10 14:16:47;;;;;;;20.88;16.83;;;;;;;;;;10116444;28;20137;-69
2022/12/10 14:21:45;;;;;;;20.10;18.10;;;;;;;;;;10126160;28;20082;-69
2022/12/10 14:26:41;;;;;;;20.95;18.75;;;;;;;;;;10119878;28;20162;-69
2022/12/10 14:31:41;;;;;;;21.08;18.90;;;;;;;;;;10115817;28;20050;-69
2022/12/10 14:36:39;;;;;;;20.60;18.52;;;;;;;;;;10113744;28;20051;-69
2022/12/10 14:41:36;;;;;;;19.42;17.42;;;;;;;;;;10110944;28;20055;-69
2022/12/10 14:46:36;;;;;;;18.73;16.85;;;;;;;;;;10109503;28;20062;-68
2022/12/10 14:51:33;;;;;;;19.55;17.02;;;;;;;;;;10112926;28;20727;-68
2022/12/10 14:56:33;;;;;;;19.63;17.60;;;;;;;;;;10123815;28;20069;-68
2022/12/10 15:01:34;;;;;;;20.40;18.10;;;;;;;;;;10110529;28;20503;-68
2022/12/10 15:06:35;;;;;;;20.10;18.03;;;;;;;;;;10099217;28;20092;-69
2022/12/10 15:11:31;;;;;;;20.92;18.75;;;;;;;;;;10105747;28;20145;-69
2022/12/10 15:16:37;;;;;;;21.77;19.20;;;;;;;;;;10109982;28;20534;-69
2022/12/10 15:21:40;;;;;;;21.50;19.05;;;;;;;;;;10110544;28;20507;-69
2022/12/10 15:26:42;;;;;;;21.65;18.88;;;;;;;;;;10117393;28;20081;-69
2022/12/10 15:31:42;;;;;;;20.10;18.08;;;;;;;;;;10116616;28;20046;-69
2022/12/10 15:36:42;;;;;;;20.75;18.55;;;;;;;;;;10111356;28;20406;-69
2022/12/10 15:41:51;;;;;;;21.00;18.70;;;;;;;;;;10110922;28;20062;-69
2022/12/10 15:46:49;;;;;;;19.15;17.13;;;;;;;;;;10109613;28;20065;-69
2022/12/10 15:51:45;;;;;;;21.00;18.80;;;;;;;;;;10103111;28;20481;-69
2022/12/10 15:56:41;;;;;;;20.67;17.83;;;;;;;;;;10101169;28;20157;-69
2022/12/10 16:01:37;;;;;;;19.75;17.60;;;;;;;;;;10107716;28;20046;-69
2022/12/10 16:06:34;;;;;;;19.58;17.48;;;;;;;;;;10113487;28;20050;-69
2022/12/10 16:11:30;;;;;;;20.95;18.58;;;;;;;;;;10115392;28;20039;-69
2022/12/10 16:16:27;;;;;;;20.42;18.23;;;;;;;;;;10116457;28;20054;-69
2022/12/10 16:21:23;;;;;;;23.45;18.35;;;;;;;;;;10110261;28;20063;-68
2022/12/10 16:26:21;;;;;;;20.55;18.13;;;;;;;;;;10102683;28;20081;-69
2022/12/10 16:31:19;;;;;;;19.42;17.42;;;;;;;;;;10114627;28;20434;-69
2022/12/10 16:36:15;;;;;;;25.20;19.15;;;;;;;;;;10103969;28;20050;-69
2022/12/10 16:41:15;;;;;;;20.27;16.92;;;;;;;;;;10130941;28;20050;-69
2022/12/10 16:46:13;;;;;;;22.88;18.33;;;;;;;;;;10104684;28;20399;-69
2022/12/10 16:51:14;;;;;;;21.63;18.58;;;;;;;;;;10122048;28;20049;-69
2022/12/10 16:56:12;;;;;;;24.83;18.48;;;;;;;;;;10133922;28;20070;-70
2022/12/10 17:01:19;;;;;;;24.65;19.42;;;;;;;;;;10101451;28;20138;-69
2022/12/10 17:06:15;;;;;;;23.60;19.10;;;;;;;;;;10106839;28;20525;-69
2022/12/10 17:16:32;;;;;;;24.63;19.58;;;;;;;;;;10101208;28;20416;-69
2022/12/10 17:21:28;;;;;;;24.98;19.67;;;;;;;;;;10110242;28;20391;-69
2022/12/10 17:26:32;;;;;;;24.10;20.25;;;;;;;;;;10100766;28;20043;-69
2022/12/10 17:31:28;;;;;;;26.27;20.00;;;;;;;;;;10121319;28;20045;-69
2022/12/10 17:36:25;;;;;;;27.30;20.10;;;;;;;;;;10112009;28;20050;-69
2022/12/10 17:41:21;;;;;;;27.50;20.05;;;;;;;;;;10119011;28;20047;-69
2022/12/10 17:46:19;;;;;;;23.17;18.52;;;;;;;;;;10112520;28;20507;-69
2022/12/10 17:51:16;;;;;;;25.38;20.20;;;;;;;;;;10108484;28;20038;-69
2022/12/10 17:56:14;;;;;;;23.55;20.15;;;;;;;;;;10102554;28;20134;-69
2022/12/10 18:01:10;;;;;;;25.25;18.90;;;;;;;;;;10122188;28;20671;-68
2022/12/10 18:06:14;;;;;;;22.95;18.25;;;;;;;;;;10115742;28;20057;-68
2022/12/10 18:11:12;;;;;;;23.98;18.58;;;;;;;;;;10116618;28;20048;-69
2022/12/10 18:16:16;;;;;;;22.85;18.17;;;;;;;;;;10114081;28;20165;-69
2022/12/10 18:21:13;;;;;;;25.05;18.45;;;;;;;;;;10112938;28;20414;-69
2022/12/10 18:26:10;;;;;;;25.23;19.58;;;;;;;;;;10113951;28;20047;-69
2022/12/10 18:31:12;;;;;;;26.55;19.88;;;;;;;;;;10116643;28;20042;-69
2022/12/10 18:36:23;;;;;;;26.27;20.10;;;;;;;;;;10116817;28;20101;-70
2022/12/10 18:41:20;;;;;;;29.05;20.95;;;;;;;;;;10108349;28;20058;-70
2022/12/10 18:46:19;;;;;;;23.00;18.08;;;;;;;;;;10106200;28;20097;-70
2022/12/10 18:51:15;;;;;;;19.70;16.90;;;;;;;;;;10113022;28;20068;-70
2022/12/10 18:56:14;;;;;;;20.95;16.55;;;;;;;;;;10116317;28;20049;-70
2022/12/10 19:01:11;;;;;;;24.27;17.13;;;;;;;;;;10119839;28;20046;-70
2022/12/10 19:06:18;;;;;;;23.70;17.65;;;;;;;;;;10108618;28;20078;-70
2022/12/10 19:11:15;;;;;;;26.02;18.63;;;;;;;;;;10116876;28;20494;-70
2022/12/10 19:16:13;;;;;;;24.00;17.08;;;;;;;;;;10109010;28;20050;-70
2022/12/10 19:21:09;;;;;;;22.88;17.05;;;;;;;;;;10110204;28;20117;-71
2022/12/10 19:26:24;;;;;;;23.55;17.08;;;;;;;;;;10124369;28;20043;-70
2022/12/10 19:31:20;;;;;;;21.95;17.05;;;;;;;;;;10109329;28;20046;-70
2022/12/10 19:36:18;;;;;;;22.10;15.77;;;;;;;;;;10103078;28;20498;-70
2022/12/10 19:41:16;;;;;;;22.63;17.02;;;;;;;;;;10107719;28;20046;-70
2022/12/10 19:46:12;;;;;;;23.13;16.52;;;;;;;;;;10115369;28;20055;-70
2022/12/10 19:51:08;;;;;;;21.98;15.57;;;;;;;;;;10104440;28;20062;-65
2022/12/10 19:56:24;;;;;;;21.92;16.90;;;;;;;;;;10107630;28;20046;-65
2022/12/10 20:01:21;;;;;;;20.92;15.63;;;;;;;;;;10108288;28;20518;-65
2022/12/10 20:06:27;;;;;;;21.13;16.13;;;;;;;;;;10114890;28;20126;-65
2022/12/10 20:11:23;;;;;;;19.63;15.32;;;;;;;;;;10132813;28;20070;-65
2022/12/10 20:16:21;;;;;;;19.25;15.48;;;;;;;;;;10103914;28;20043;-65
2022/12/10 20:21:18;;;;;;;19.33;14.88;;;;;;;;;;10106766;28;20427;-65
2022/12/10 20:26:19;;;;;;;21.70;16.25;;;;;;;;;;10098989;28;20150;-65
2022/12/10 20:31:16;;;;;;;23.67;16.45;;;;;;;;;;10114313;28;20129;-66
2022/12/10 20:36:14;;;;;;;23.40;16.25;;;;;;;;;;10103593;28;20046;-66
2022/12/10 20:41:11;;;;;;;20.00;15.48;;;;;;;;;;10105485;28;20434;-65
2022/12/10 20:46:16;;;;;;;21.77;16.33;;;;;;;;;;10105546;28;20047;-66
2022/12/10 20:51:12;;;;;;;18.95;14.60;;;;;;;;;;10108119;28;20616;-66
2022/12/10 20:56:10;;;;;;;18.10;14.82;;;;;;;;;;10115503;28;20465;-65
2022/12/10 21:01:06;;;;;;;19.40;14.95;;;;;;;;;;10117545;28;20053;-65
2022/12/10 21:06:04;;;;;;;19.10;14.13;;;;;;;;;;10114945;28;20093;-65
2022/12/10 21:11:00;;;;;;;21.52;15.13;;;;;;;;;;10108619;28;20050;-66
2022/12/10 21:15:58;;;;;;;17.10;13.60;;;;;;;;;;10105773;28;20129;-66
2022/12/10 21:20:55;;;;;;;20.08;14.90;;;;;;;;;;10111578;28;20063;-66
2022/12/10 21:25:51;;;;;;;18.90;14.23;;;;;;;;;;10107245;28;20507;-66
2022/12/10 21:30:48;;;;;;;23.42;15.38;;;;;;;;;;10109084;28;20818;-66
2022/12/10 21:35:45;;;;;;;16.88;13.75;;;;;;;;;;10108178;28;20089;-66
2022/12/10 21:40:42;;;;;;;19.20;15.48;;;;;;;;;;10105256;28;20061;-66
2022/12/10 21:45:38;;;;;;;18.70;14.18;;;;;;;;;;10111818;28;20051;-66
2022/12/10 21:50:35;;;;;;;18.90;14.60;;;;;;;;;;10113111;28;20100;-66
2022/12/10 21:55:31;;;;;;;19.00;14.80;;;;;;;;;;10111377;28;20073;-65
2022/12/10 22:00:27;;;;;;;21.55;15.07;;;;;;;;;;10115051;28;20047;-66
2022/12/10 22:05:24;;;;;;;17.38;13.10;;;;;;;;;;10121411;28;20047;-66
2022/12/10 22:10:20;;;;;;;16.40;12.63;;;;;;;;;;10104187;28;20134;-66
2022/12/10 22:15:16;;;;;;;16.08;13.50;;;;;;;;;;10107957;28;20109;-66
2022/12/10 22:20:13;;;;;;;17.48;13.65;;;;;;;;;;10112037;28;20053;-66
2022/12/10 22:25:09;;;;;;;15.82;13.45;;;;;;;;;;10104619;28;20141;-66
2022/12/10 22:30:06;;;;;;;17.90;13.63;;;;;;;;;;10109705;28;20145;-66
2022/12/10 22:35:02;;;;;;;18.75;13.35;;;;;;;;;;10115116;28;20472;-66
2022/12/10 22:40:04;;;;;;;18.63;13.38;;;;;;;;;;10114340;28;20130;-65
2022/12/10 22:45:00;;;;;;;15.33;12.77;;;;;;;;;;10113369;28;20062;-66
2022/12/10 22:49:56;;;;;;;15.98;12.60;;;;;;;;;;10116424;28;20146;-66
2022/12/10 22:54:53;;;;;;;14.80;12.35;;;;;;;;;;10108035;28;20053;-65
2022/12/10 22:59:49;;;;;;;14.32;11.98;;;;;;;;;;10120315;28;20070;-65
2022/12/10 23:04:49;;;;;;;15.18;11.38;;;;;;;;;;10126824;28;20048;-65
2022/12/10 23:09:45;;;;;;;16.40;12.35;;;;;;;;;;10107833;28;20057;-65
2022/12/10 23:14:43;;;;;;;14.77;12.35;;;;;;;;;;10109899;28;20055;-66
2022/12/10 23:19:39;;;;;;;14.40;11.57;;;;;;;;;;10106119;28;20051;-65
2022/12/10 23:24:36;;;;;;;15.50;11.32;;;;;;;;;;10098595;28;20049;-65
2022/12/10 23:29:32;;;;;;;14.05;11.43;;;;;;;;;;10111491;28;20506;-66
2022/12/10 23:34:29;;;;;;;14.48;11.63;;;;;;;;;;10104611;28;20554;-65
2022/12/10 23:39:25;;;;;;;15.95;12.45;;;;;;;;;;10108225;28;20098;-66
2022/12/10 23:44:21;;;;;;;13.68;10.80;;;;;;;;;;10105675;28;20050;-66
2022/12/10 23:49:18;;;;;;;12.10;10.50;;;;;;;;;;10108519;28;20042;-65
2022/12/10 23:54:14;;;;;;;14.93;9.80;;;;;;;;;;10106272;28;20046;-65
2022/12/10 23:59:10;;;;;;;15.88;11.73;;;;;;;;;;10108853;28;20046;-65
